International Virtual Aviation Organisation

Russian Federation and Kazakhstan MCD

 

Карточка аэропорта UHWW

Внимание!
Информация на этой странице в стадии наполнения.
Если вы не увидели какой-то информации, или заметили неточность - пожалуйста сообщите нам!
Спасибо!
Команда RU-STAFF
Название аэропортаКневичи
Название аэропорта (англ.)Knevichi
Превышение59 ft. (18 m.)
Координаты43°23.886', 132°8.9400000000001'
Высота перехода1800m
Эшелон переходаFL080
Коды ответчика5050-5077
Зона ОрВДХабаровск РПИ (UHHH)
Данные METARUHWW 191600Z 00000MPS 9000 OVC009 18/18 Q1014 R25L/0///70 NOSIG RMK MT OBSC QFE759
Проноз погоды (TAF)UHWW 191400Z 1915/2015 22003MPS 3100 -SHRA BR BKN010 BKN020CB TEMPO 1915/1924 19003MPS 0500 FG VV002 FM200000 18003MPS 9999 SCT010 BKN017CB TEMPO 2000/2009 3500 -SHRA
NOTAMshow/hide NOTAM
AWOS   TABLE

Информация о ВПП

ВПП Длина ВПП (м.) Покрытие Курс ВПП Частота ILS
07R3500Бетон71109.3
25L3500Бетон251110.1

Диспетчерские позиции

Позывной Наименование органа УВД Частота
UHWW_APPВладивосток-Подход124.7
UHWW_R_APPВладивосток-Круг119.5
UHWW_TWRВладивосток-Старт126.0
UHWW_GNDВладивосток-Руление121.7
UHWW-FM1Машина сопровождения121.700



Спутниковое изображение